createdAt,value
2023-04-21T00:00:10.374Z,7.90
2023-04-21T00:02:39.803Z,7.90
2023-04-21T00:05:12.719Z,7.90
2023-04-21T00:07:41.056Z,7.90
2023-04-21T00:10:08.953Z,7.90
2023-04-21T00:12:36.348Z,7.90
2023-04-21T00:15:09.964Z,7.80
2023-04-21T00:17:36.848Z,7.80
2023-04-21T00:20:05.039Z,7.80
2023-04-21T00:22:31.785Z,7.70
2023-04-21T00:24:58.895Z,7.70
2023-04-21T00:27:26.212Z,7.70
2023-04-21T00:29:54.454Z,7.60
2023-04-21T00:32:23.508Z,7.60
2023-04-21T00:34:50.633Z,7.60
2023-04-21T00:37:17.436Z,7.60
2023-04-21T00:39:44.269Z,7.60
2023-04-21T00:42:11.091Z,7.60
2023-04-21T00:44:40.148Z,7.50
2023-04-21T00:47:07.258Z,7.50
2023-04-21T00:49:34.228Z,7.50
2023-04-21T00:52:03.419Z,7.50
2023-04-21T00:54:30.759Z,7.50
2023-04-21T00:57:02.742Z,7.50
2023-04-21T00:59:30.647Z,7.50
2023-04-21T01:01:57.572Z,7.60
2023-04-21T01:04:24.422Z,7.60
2023-04-21T01:06:51.627Z,7.50
2023-04-21T01:09:19.317Z,7.50
2023-04-21T01:12:02.263Z,7.50
2023-04-21T01:14:29.283Z,7.50
2023-04-21T01:16:57.716Z,7.50
2023-04-21T01:19:27.635Z,7.50
2023-04-21T01:21:57.701Z,7.60
2023-04-21T01:24:29.945Z,7.60
2023-04-21T01:26:58.148Z,7.60
2023-04-21T01:29:25.417Z,7.70
2023-04-21T01:31:52.402Z,7.70
2023-04-21T01:34:19.715Z,7.80
2023-04-21T01:36:46.998Z,7.80
2023-04-21T01:39:13.704Z,7.80
2023-04-21T01:41:43.013Z,7.90
2023-04-21T01:44:12.570Z,7.90
2023-04-21T01:46:39.302Z,8.00
2023-04-21T01:49:06.049Z,8.10
2023-04-21T01:51:32.793Z,8.20
2023-04-21T01:53:59.711Z,8.20
2023-04-21T01:56:26.650Z,8.20
2023-04-21T01:58:55.168Z,8.20
2023-04-21T02:01:23.932Z,8.20
2023-04-21T02:03:53.694Z,8.30
2023-04-21T02:06:20.728Z,8.30
2023-04-21T02:08:50.274Z,8.30
2023-04-21T02:11:21.417Z,8.40
2023-04-21T02:13:49.154Z,8.40
2023-04-21T02:16:16.424Z,8.40
2023-04-21T02:18:47.512Z,8.40
2023-04-21T02:21:16.133Z,8.40
2023-04-21T02:23:44.984Z,8.40
2023-04-21T02:26:11.952Z,8.30
2023-04-21T02:28:48.548Z,8.30
2023-04-21T02:31:20.100Z,8.30
2023-04-21T02:33:47.606Z,8.30
2023-04-21T02:36:17.513Z,8.30
2023-04-21T02:38:47.559Z,8.20
2023-04-21T02:41:14.353Z,8.20
2023-04-21T02:43:41.490Z,8.20
2023-04-21T02:46:08.818Z,8.20
2023-04-21T02:48:36.401Z,8.10
2023-04-21T02:51:06.761Z,8.10
2023-04-21T02:53:33.799Z,8.00
2023-04-21T02:56:13.121Z,8.00
2023-04-21T02:58:45.973Z,7.90
2023-04-21T03:01:12.840Z,7.90
2023-04-21T03:03:39.780Z,7.80
2023-04-21T03:06:08.460Z,7.70
2023-04-21T03:08:36.424Z,7.70
2023-04-21T03:11:03.302Z,7.60
2023-04-21T03:13:30.568Z,7.60
2023-04-21T03:15:58.577Z,7.60
2023-04-21T03:18:30.388Z,7.50
2023-04-21T03:21:03.546Z,7.50
2023-04-21T03:23:30.350Z,7.40
2023-04-21T03:26:02.876Z,7.40
2023-04-21T03:28:29.730Z,7.30
2023-04-21T03:30:58.855Z,7.20
2023-04-21T03:33:27.209Z,7.20
2023-04-21T03:35:53.916Z,7.20
2023-04-21T03:38:21.963Z,7.10
2023-04-21T03:40:53.395Z,7.10
2023-04-21T03:43:20.348Z,7.10
2023-04-21T03:45:48.294Z,7.00
2023-04-21T03:48:20.509Z,7.00
2023-04-21T03:50:48.821Z,6.90
2023-04-21T03:53:15.583Z,6.90
2023-04-21T03:55:46.474Z,6.90
2023-04-21T03:58:19.710Z,6.80
2023-04-21T04:00:49.088Z,6.80
2023-04-21T04:03:19.757Z,6.70
2023-04-21T04:05:51.811Z,6.70
2023-04-21T04:08:21.740Z,6.70
2023-04-21T04:16:21.069Z,6.80
2023-04-21T04:18:56.589Z,6.80
2023-04-21T04:21:26.839Z,6.80
2023-04-21T05:24:47.353Z,14.00
2023-04-21T08:08:48.901Z,19.50
2023-04-21T09:28:03.323Z,19.20
2023-04-21T09:30:30.151Z,19.30
2023-04-21T09:33:00.036Z,19.30
2023-04-21T09:35:44.798Z,19.40
2023-04-21T09:38:12.782Z,19.60
2023-04-21T09:40:40.458Z,19.70
2023-04-21T09:43:07.711Z,19.60
2023-04-21T09:45:40.307Z,19.50
2023-04-21T09:48:07.781Z,19.50
2023-04-21T09:51:15.378Z,19.60
2023-04-21T09:53:21.845Z,19.40
2023-04-21T09:55:50.251Z,19.40
2023-04-21T09:58:19.294Z,19.30
2023-04-21T10:00:46.247Z,19.20
2023-04-21T10:03:16.123Z,19.10
2023-04-21T10:05:43.370Z,19.10
2023-04-21T10:08:11.642Z,19.10
2023-04-21T10:10:39.755Z,19.20
2023-04-21T10:13:12.482Z,19.30
2023-04-21T10:15:40.729Z,19.50
2023-04-21T10:18:24.912Z,19.50
2023-04-21T10:20:55.750Z,19.60
2023-04-21T10:23:45.022Z,19.40
2023-04-21T10:26:19.318Z,19.20
2023-04-21T10:28:54.480Z,19.20
2023-04-21T10:31:27.094Z,19.20
2023-04-21T10:34:08.796Z,19.30
2023-04-21T10:36:59.083Z,19.40
2023-04-21T10:39:27.184Z,19.60
2023-04-21T10:41:58.972Z,19.70
2023-04-21T10:44:25.817Z,19.80
2023-04-21T10:46:55.793Z,19.80
2023-04-21T10:49:26.106Z,19.70
2023-04-21T10:52:01.013Z,19.60
2023-04-21T10:54:29.755Z,19.60
2023-04-21T10:56:57.388Z,19.80
2023-04-21T10:59:24.992Z,19.80
2023-04-21T11:01:55.232Z,19.90
2023-04-21T11:04:25.063Z,20.00
2023-04-21T11:10:35.634Z,20.20
2023-04-21T11:19:12.217Z,19.90
2023-04-21T11:21:42.152Z,19.90
2023-04-21T11:24:19.779Z,20.00
2023-04-21T11:29:36.418Z,20.10
2023-04-21T11:32:15.867Z,19.90
2023-04-21T11:37:46.263Z,19.60
2023-04-21T11:43:26.899Z,19.40
2023-04-21T13:17:43.224Z,18.80
2023-04-21T13:20:15.036Z,18.70
2023-04-21T20:12:41.864Z,11.30
2023-04-21T20:15:11.953Z,11.30
2023-04-21T20:17:39.138Z,11.30
2023-04-21T20:20:09.522Z,11.20
2023-04-21T20:22:38.925Z,11.20
2023-04-21T20:25:07.289Z,11.10
2023-04-21T20:27:34.140Z,11.00
2023-04-21T20:30:01.187Z,11.00
2023-04-21T20:32:28.005Z,11.00
2023-04-21T20:34:54.805Z,10.90
2023-04-21T20:37:23.112Z,10.90
2023-04-21T20:39:50.030Z,10.90
2023-04-21T20:42:19.359Z,10.80
2023-04-21T20:44:46.149Z,10.80
2023-04-21T20:47:14.841Z,10.70
2023-04-21T20:49:43.333Z,10.70
2023-04-21T20:52:14.470Z,10.70
2023-04-21T20:54:42.298Z,10.60
2023-04-21T20:57:10.311Z,10.60
2023-04-21T20:59:37.273Z,10.60
2023-04-21T21:02:05.330Z,10.60
2023-04-21T21:04:33.357Z,10.50
2023-04-21T21:07:01.408Z,10.40
2023-04-21T21:09:28.236Z,10.40
2023-04-21T21:11:55.454Z,10.40
2023-04-21T21:14:37.477Z,10.30
2023-04-21T21:17:07.320Z,10.30
2023-04-21T21:19:34.108Z,10.20
2023-04-21T21:22:02.563Z,10.20
2023-04-21T21:24:33.341Z,10.20
2023-04-21T21:27:03.492Z,10.20
2023-04-21T21:29:31.187Z,10.20
2023-04-21T21:31:58.091Z,10.10
2023-04-21T21:34:24.954Z,10.10
2023-04-21T21:36:52.864Z,10.10
2023-04-21T21:39:28.113Z,10.10
2023-04-21T21:41:59.529Z,10.00
2023-04-21T21:44:26.287Z,10.00
2023-04-21T21:46:53.385Z,9.90
2023-04-21T21:49:20.484Z,9.90
2023-04-21T21:51:50.898Z,9.90
2023-04-21T21:54:19.674Z,9.80
2023-04-21T21:56:48.038Z,9.90
2023-04-21T22:03:00.918Z,9.80
2023-04-21T22:05:30.400Z,9.70
2023-04-21T22:08:00.351Z,9.70
2023-04-21T22:10:30.750Z,9.60
2023-04-21T22:12:59.118Z,9.60
2023-04-21T22:15:27.257Z,9.50
2023-04-21T22:17:54.333Z,9.50
2023-04-21T22:20:26.206Z,9.50
2023-04-21T22:22:53.767Z,9.40
2023-04-21T22:25:26.877Z,9.40
2023-04-21T22:27:57.955Z,9.40
2023-04-21T22:30:28.374Z,9.30
2023-04-21T22:32:55.330Z,9.30
2023-04-21T22:35:23.459Z,9.20
2023-04-21T22:37:52.136Z,9.20
2023-04-21T22:40:21.338Z,9.10
2023-04-21T22:42:50.372Z,9.10
2023-04-21T22:45:22.114Z,9.00
2023-04-21T22:47:50.135Z,9.00
2023-04-21T22:50:17.238Z,9.00
2023-04-21T22:52:44.074Z,8.90
2023-04-21T22:55:12.313Z,8.90
2023-04-21T22:57:39.654Z,8.80
2023-04-21T23:00:10.222Z,8.80
2023-04-21T23:02:40.985Z,8.80
2023-04-21T23:05:10.943Z,8.80
2023-04-21T23:07:38.325Z,8.70
2023-04-21T23:10:08.050Z,8.70
2023-04-21T23:12:35.207Z,8.60
2023-04-21T23:15:04.794Z,8.70
2023-04-21T23:17:31.968Z,8.70
2023-04-21T23:20:02.364Z,8.70
2023-04-21T23:22:30.922Z,8.60
2023-04-21T23:24:58.197Z,8.60
2023-04-21T23:27:25.148Z,8.60
2023-04-21T23:29:53.468Z,8.60
2023-04-21T23:32:20.782Z,8.50
2023-04-21T23:34:52.104Z,8.50
2023-04-21T23:37:19.011Z,8.40
2023-04-21T23:39:46.850Z,8.40
2023-04-21T23:42:14.108Z,8.40
2023-04-21T23:44:42.261Z,8.40
2023-04-21T23:47:10.251Z,8.30
2023-04-21T23:49:39.842Z,8.30
2023-04-21T23:52:11.563Z,8.40
2023-04-21T23:54:40.092Z,8.40
2023-04-21T23:57:09.237Z,8.40
2023-04-21T23:59:39.101Z,8.40
